sensor_id;sensor_type;location;lat;lon;timestamp;pressure;altitude;pressure_sealevel;temperature;humidity
20620;BME280;10469;42.720;23.252;2023-04-19T00:01:38;94504.50;;;9.27;100.00
20620;BME280;10469;42.720;23.252;2023-04-19T00:04:03;94493.47;;;9.23;100.00
20620;BME280;10469;42.720;23.252;2023-04-19T00:06:29;94502.72;;;9.44;100.00
20620;BME280;10469;42.720;23.252;2023-04-19T00:08:56;94496.78;;;9.42;100.00
20620;BME280;10469;42.720;23.252;2023-04-19T00:11:22;94494.75;;;9.33;100.00
20620;BME280;10469;42.720;23.252;2023-04-19T00:13:47;94494.84;;;9.38;100.00
20620;BME280;10469;42.720;23.252;2023-04-19T00:16:13;94494.69;;;9.44;100.00
20620;BME280;10469;42.720;23.252;2023-04-19T00:18:39;94495.19;;;9.41;100.00
20620;BME280;10469;42.720;23.252;2023-04-19T00:21:05;94486.50;;;9.22;100.00
20620;BME280;10469;42.720;23.252;2023-04-19T00:23:30;94488.25;;;9.17;100.00
20620;BME280;10469;42.720;23.252;2023-04-19T00:25:56;94497.19;;;9.22;100.00
20620;BME280;10469;42.720;23.252;2023-04-19T00:28:23;94485.94;;;9.20;100.00
20620;BME280;10469;42.720;23.252;2023-04-19T00:30:49;94486.13;;;9.30;100.00
20620;BME280;10469;42.720;23.252;2023-04-19T00:33:14;94490.13;;;9.16;100.00
20620;BME280;10469;42.720;23.252;2023-04-19T00:35:40;94491.88;;;9.11;100.00
20620;BME280;10469;42.720;23.252;2023-04-19T00:38:06;94491.50;;;9.19;100.00
20620;BME280;10469;42.720;23.252;2023-04-19T00:40:32;94462.84;;;9.31;100.00
20620;BME280;10469;42.720;23.252;2023-04-19T00:42:58;94475.50;;;9.36;100.00
20620;BME280;10469;42.720;23.252;2023-04-19T00:45:24;94488.69;;;9.54;100.00
20620;BME280;10469;42.720;23.252;2023-04-19T00:47:50;94475.66;;;9.29;100.00
20620;BME280;10469;42.720;23.252;2023-04-19T00:50:16;94478.78;;;9.38;100.00
20620;BME280;10469;42.720;23.252;2023-04-19T00:52:42;94483.06;;;9.39;100.00
20620;BME280;10469;42.720;23.252;2023-04-19T00:55:08;94472.38;;;9.39;100.00
20620;BME280;10469;42.720;23.252;2023-04-19T00:57:36;94480.50;;;9.44;100.00
20620;BME280;10469;42.720;23.252;2023-04-19T01:00:02;94477.03;;;9.32;100.00
20620;BME280;10469;42.720;23.252;2023-04-19T01:02:31;94473.81;;;9.29;100.00
20620;BME280;10469;42.720;23.252;2023-04-19T01:04:57;94482.59;;;9.42;100.00
20620;BME280;10469;42.720;23.252;2023-04-19T01:07:23;94464.91;;;9.41;100.00
20620;BME280;10469;42.720;23.252;2023-04-19T01:09:49;94480.78;;;9.30;100.00
20620;BME280;10469;42.720;23.252;2023-04-19T01:12:15;94465.06;;;9.34;100.00
20620;BME280;10469;42.720;23.252;2023-04-19T01:14:41;94463.13;;;9.18;100.00
20620;BME280;10469;42.720;23.252;2023-04-19T01:17:07;94471.84;;;9.25;100.00
20620;BME280;10469;42.720;23.252;2023-04-19T01:19:33;94467.78;;;9.22;100.00
20620;BME280;10469;42.720;23.252;2023-04-19T01:22:02;94472.84;;;9.07;100.00
20620;BME280;10469;42.720;23.252;2023-04-19T01:24:29;94476.59;;;8.83;100.00
20620;BME280;10469;42.720;23.252;2023-04-19T01:26:55;94466.47;;;8.85;100.00
20620;BME280;10469;42.720;23.252;2023-04-19T01:29:20;94475.25;;;9.09;100.00
20620;BME280;10469;42.720;23.252;2023-04-19T01:31:47;94468.03;;;9.09;100.00
20620;BME280;10469;42.720;23.252;2023-04-19T01:34:20;94465.38;;;9.09;100.00
20620;BME280;10469;42.720;23.252;2023-04-19T01:36:47;94468.75;;;9.04;100.00
20620;BME280;10469;42.720;23.252;2023-04-19T01:39:13;94448.97;;;9.05;100.00
20620;BME280;10469;42.720;23.252;2023-04-19T01:41:39;94461.34;;;8.95;100.00
20620;BME280;10469;42.720;23.252;2023-04-19T01:44:04;94464.38;;;8.98;100.00
20620;BME280;10469;42.720;23.252;2023-04-19T01:46:30;94475.28;;;8.97;100.00
20620;BME280;10469;42.720;23.252;2023-04-19T01:48:56;94468.69;;;8.76;100.00
20620;BME280;10469;42.720;23.252;2023-04-19T01:51:21;94453.72;;;8.75;100.00
20620;BME280;10469;42.720;23.252;2023-04-19T01:53:47;94456.28;;;8.70;100.00
20620;BME280;10469;42.720;23.252;2023-04-19T01:56:18;94460.31;;;8.84;100.00
20620;BME280;10469;42.720;23.252;2023-04-19T01:58:44;94469.38;;;8.83;100.00
20620;BME280;10469;42.720;23.252;2023-04-19T02:01:09;94466.19;;;8.98;100.00
20620;BME280;10469;42.720;23.252;2023-04-19T02:03:40;94456.25;;;8.82;100.00
20620;BME280;10469;42.720;23.252;2023-04-19T02:06:10;94458.44;;;8.85;100.00
20620;BME280;10469;42.720;23.252;2023-04-19T02:08:37;94452.53;;;8.83;100.00
20620;BME280;10469;42.720;23.252;2023-04-19T02:11:10;94469.44;;;8.48;100.00
20620;BME280;10469;42.720;23.252;2023-04-19T02:13:36;94461.06;;;8.44;100.00
20620;BME280;10469;42.720;23.252;2023-04-19T02:16:02;94453.50;;;8.65;100.00
20620;BME280;10469;42.720;23.252;2023-04-19T02:18:31;94457.69;;;8.49;100.00
20620;BME280;10469;42.720;23.252;2023-04-19T02:20:57;94468.25;;;8.67;100.00
20620;BME280;10469;42.720;23.252;2023-04-19T02:23:23;94462.91;;;8.67;100.00
20620;BME280;10469;42.720;23.252;2023-04-19T02:25:50;94462.88;;;8.79;100.00
20620;BME280;10469;42.720;23.252;2023-04-19T02:28:16;94447.69;;;8.56;100.00
20620;BME280;10469;42.720;23.252;2023-04-19T02:30:42;94464.19;;;8.53;100.00
20620;BME280;10469;42.720;23.252;2023-04-19T02:33:07;94460.34;;;8.72;100.00
20620;BME280;10469;42.720;23.252;2023-04-19T02:35:33;94458.84;;;8.76;100.00
20620;BME280;10469;42.720;23.252;2023-04-19T02:38:02;94455.00;;;8.72;100.00
20620;BME280;10469;42.720;23.252;2023-04-19T02:40:28;94461.25;;;8.78;100.00
20620;BME280;10469;42.720;23.252;2023-04-19T02:42:54;94452.19;;;8.67;100.00
20620;BME280;10469;42.720;23.252;2023-04-19T02:45:20;94461.53;;;8.65;100.00
20620;BME280;10469;42.720;23.252;2023-04-19T02:47:45;94460.38;;;8.61;100.00
20620;BME280;10469;42.720;23.252;2023-04-19T02:50:12;94458.03;;;8.64;100.00
20620;BME280;10469;42.720;23.252;2023-04-19T02:52:37;94464.09;;;8.60;100.00
20620;BME280;10469;42.720;23.252;2023-04-19T02:55:05;94452.81;;;8.58;100.00
20620;BME280;10469;42.720;23.252;2023-04-19T02:57:31;94454.66;;;8.57;100.00
20620;BME280;10469;42.720;23.252;2023-04-19T02:59:57;94451.19;;;8.57;100.00
20620;BME280;10469;42.720;23.252;2023-04-19T03:02:26;94451.19;;;8.45;100.00
20620;BME280;10469;42.720;23.252;2023-04-19T03:04:51;94453.72;;;8.63;100.00
20620;BME280;10469;42.720;23.252;2023-04-19T03:07:20;94453.06;;;8.44;100.00
20620;BME280;10469;42.720;23.252;2023-04-19T03:09:47;94448.41;;;8.51;100.00
20620;BME280;10469;42.720;23.252;2023-04-19T03:12:12;94451.53;;;8.48;100.00
20620;BME280;10469;42.720;23.252;2023-04-19T03:14:38;94455.63;;;8.51;100.00
20620;BME280;10469;42.720;23.252;2023-04-19T03:17:04;94441.78;;;8.42;100.00
20620;BME280;10469;42.720;23.252;2023-04-19T03:19:29;94457.22;;;8.52;100.00
20620;BME280;10469;42.720;23.252;2023-04-19T03:21:55;94453.97;;;8.50;100.00
20620;BME280;10469;42.720;23.252;2023-04-19T03:24:30;94451.88;;;8.52;100.00
20620;BME280;10469;42.720;23.252;2023-04-19T03:26:56;94461.78;;;8.51;100.00
20620;BME280;10469;42.720;23.252;2023-04-19T03:29:22;94451.78;;;8.47;100.00
20620;BME280;10469;42.720;23.252;2023-04-19T03:31:48;94442.25;;;8.51;100.00
20620;BME280;10469;42.720;23.252;2023-04-19T03:34:14;94455.16;;;8.42;100.00
20620;BME280;10469;42.720;23.252;2023-04-19T03:36:40;94448.88;;;8.37;100.00
20620;BME280;10469;42.720;23.252;2023-04-19T03:39:05;94453.50;;;8.41;100.00
20620;BME280;10469;42.720;23.252;2023-04-19T03:41:31;94429.56;;;8.23;100.00
20620;BME280;10469;42.720;23.252;2023-04-19T03:43:57;94458.28;;;8.39;100.00
20620;BME280;10469;42.720;23.252;2023-04-19T03:46:23;94450.69;;;8.36;100.00
20620;BME280;10469;42.720;23.252;2023-04-19T03:48:49;94454.31;;;8.30;100.00
20620;BME280;10469;42.720;23.252;2023-04-19T03:51:15;94450.59;;;8.31;100.00
20620;BME280;10469;42.720;23.252;2023-04-19T03:53:41;94447.94;;;8.43;100.00
20620;BME280;10469;42.720;23.252;2023-04-19T03:56:07;94419.47;;;8.13;100.00
20620;BME280;10469;42.720;23.252;2023-04-19T03:58:33;94459.75;;;8.23;100.00
20620;BME280;10469;42.720;23.252;2023-04-19T04:00:59;94459.75;;;8.23;100.00
20620;BME280;10469;42.720;23.252;2023-04-19T04:03:26;94458.34;;;8.33;100.00
20620;BME280;10469;42.720;23.252;2023-04-19T04:05:51;94456.28;;;8.35;100.00
20620;BME280;10469;42.720;23.252;2023-04-19T04:08:17;94459.53;;;8.37;100.00
20620;BME280;10469;42.720;23.252;2023-04-19T04:10:43;94454.91;;;8.44;100.00
20620;BME280;10469;42.720;23.252;2023-04-19T04:13:08;94461.88;;;8.45;100.00
20620;BME280;10469;42.720;23.252;2023-04-19T04:15:34;94462.06;;;8.20;100.00
20620;BME280;10469;42.720;23.252;2023-04-19T04:17:59;94456.38;;;8.28;100.00
20620;BME280;10469;42.720;23.252;2023-04-19T04:20:25;94469.28;;;8.19;100.00
20620;BME280;10469;42.720;23.252;2023-04-19T04:22:51;94468.38;;;8.25;100.00
20620;BME280;10469;42.720;23.252;2023-04-19T04:25:16;94466.53;;;8.38;100.00
20620;BME280;10469;42.720;23.252;2023-04-19T04:27:42;94469.41;;;8.36;100.00
20620;BME280;10469;42.720;23.252;2023-04-19T04:30:10;94452.44;;;8.30;100.00
20620;BME280;10469;42.720;23.252;2023-04-19T04:32:37;94459.66;;;8.42;100.00
20620;BME280;10469;42.720;23.252;2023-04-19T04:35:04;94477.91;;;8.45;100.00
20620;BME280;10469;42.720;23.252;2023-04-19T04:37:36;94464.28;;;8.23;100.00
20620;BME280;10469;42.720;23.252;2023-04-19T04:40:02;94476.34;;;8.14;100.00
20620;BME280;10469;42.720;23.252;2023-04-19T04:42:32;94465.19;;;8.05;100.00
20620;BME280;10469;42.720;23.252;2023-04-19T04:44:58;94478.91;;;8.32;100.00
20620;BME280;10469;42.720;23.252;2023-04-19T04:47:46;94459.28;;;8.26;100.00
20620;BME280;10469;42.720;23.252;2023-04-19T04:50:15;94474.97;;;8.35;100.00
20620;BME280;10469;42.720;23.252;2023-04-19T04:52:41;94473.94;;;8.59;100.00
20620;BME280;10469;42.720;23.252;2023-04-19T04:55:07;94478.72;;;8.57;100.00
20620;BME280;10469;42.720;23.252;2023-04-19T04:57:33;94480.31;;;8.23;100.00
20620;BME280;10469;42.720;23.252;2023-04-19T04:59:58;94471.59;;;8.27;100.00
20620;BME280;10469;42.720;23.252;2023-04-19T05:02:24;94477.66;;;8.58;100.00
20620;BME280;10469;42.720;23.252;2023-04-19T05:04:50;94475.69;;;8.53;100.00
20620;BME280;10469;42.720;23.252;2023-04-19T05:07:16;94486.25;;;8.37;100.00
20620;BME280;10469;42.720;23.252;2023-04-19T05:09:41;94477.53;;;8.29;100.00
20620;BME280;10469;42.720;23.252;2023-04-19T05:12:07;94479.38;;;8.17;100.00
20620;BME280;10469;42.720;23.252;2023-04-19T05:14:32;94471.72;;;8.21;100.00
20620;BME280;10469;42.720;23.252;2023-04-19T05:16:58;94493.00;;;8.63;100.00
20620;BME280;10469;42.720;23.252;2023-04-19T05:19:23;94486.28;;;8.60;100.00
20620;BME280;10469;42.720;23.252;2023-04-19T05:21:49;94489.50;;;8.27;100.00
20620;BME280;10469;42.720;23.252;2023-04-19T05:24:15;94490.00;;;8.47;100.00
20620;BME280;10469;42.720;23.252;2023-04-19T05:26:40;94491.13;;;8.87;100.00
20620;BME280;10469;42.720;23.252;2023-04-19T05:29:06;94479.78;;;8.56;100.00
20620;BME280;10469;42.720;23.252;2023-04-19T05:31:31;94487.03;;;8.84;100.00
20620;BME280;10469;42.720;23.252;2023-04-19T05:33:57;94488.28;;;9.05;100.00
20620;BME280;10469;42.720;23.252;2023-04-19T05:36:23;94480.16;;;9.00;100.00
20620;BME280;10469;42.720;23.252;2023-04-19T05:38:48;94487.09;;;9.24;100.00
20620;BME280;10469;42.720;23.252;2023-04-19T05:41:14;94492.75;;;8.88;100.00
20620;BME280;10469;42.720;23.252;2023-04-19T05:43:39;94501.47;;;8.71;100.00
20620;BME280;10469;42.720;23.252;2023-04-19T05:46:05;94498.09;;;8.76;100.00
20620;BME280;10469;42.720;23.252;2023-04-19T05:48:31;94484.03;;;8.80;100.00
20620;BME280;10469;42.720;23.252;2023-04-19T05:50:56;94496.56;;;8.92;100.00
20620;BME280;10469;42.720;23.252;2023-04-19T05:53:23;94496.25;;;8.76;100.00
20620;BME280;10469;42.720;23.252;2023-04-19T05:55:48;94494.78;;;9.09;100.00
20620;BME280;10469;42.720;23.252;2023-04-19T05:58:15;94492.16;;;9.38;100.00
20620;BME280;10469;42.720;23.252;2023-04-19T06:00:41;94477.47;;;9.12;100.00
20620;BME280;10469;42.720;23.252;2023-04-19T06:03:08;94489.16;;;9.22;100.00
20620;BME280;10469;42.720;23.252;2023-04-19T06:05:34;94478.19;;;9.36;100.00
20620;BME280;10469;42.720;23.252;2023-04-19T06:07:59;94498.88;;;9.40;100.00
20620;BME280;10469;42.720;23.252;2023-04-19T06:10:25;94482.03;;;9.68;100.00
20620;BME280;10469;42.720;23.252;2023-04-19T06:12:51;94479.75;;;9.77;100.00
20620;BME280;10469;42.720;23.252;2023-04-19T06:15:16;94479.22;;;9.46;100.00
20620;BME280;10469;42.720;23.252;2023-04-19T06:17:42;94470.69;;;9.49;100.00
20620;BME280;10469;42.720;23.252;2023-04-19T06:20:08;94489.97;;;9.63;100.00
20620;BME280;10469;42.720;23.252;2023-04-19T06:22:34;94491.28;;;9.49;100.00
20620;BME280;10469;42.720;23.252;2023-04-19T06:25:05;94485.28;;;9.87;100.00
20620;BME280;10469;42.720;23.252;2023-04-19T06:27:31;94486.06;;;10.16;100.00
20620;BME280;10469;42.720;23.252;2023-04-19T06:29:57;94497.47;;;9.95;100.00
20620;BME280;10469;42.720;23.252;2023-04-19T06:32:25;94494.69;;;9.73;100.00
20620;BME280;10469;42.720;23.252;2023-04-19T06:34:51;94481.38;;;9.33;100.00
20620;BME280;10469;42.720;23.252;2023-04-19T06:37:16;94488.44;;;9.39;100.00
20620;BME280;10469;42.720;23.252;2023-04-19T06:39:42;94499.09;;;9.50;100.00
20620;BME280;10469;42.720;23.252;2023-04-19T06:42:08;94504.25;;;9.69;100.00
20620;BME280;10469;42.720;23.252;2023-04-19T06:44:34;94494.63;;;9.85;100.00
20620;BME280;10469;42.720;23.252;2023-04-19T06:46:59;94506.81;;;10.09;100.00
20620;BME280;10469;42.720;23.252;2023-04-19T06:49:25;94498.34;;;10.29;100.00
20620;BME280;10469;42.720;23.252;2023-04-19T06:51:51;94492.31;;;10.55;100.00
20620;BME280;10469;42.720;23.252;2023-04-19T06:54:17;94498.75;;;10.54;100.00
20620;BME280;10469;42.720;23.252;2023-04-19T06:56:47;94497.06;;;9.86;100.00
20620;BME280;10469;42.720;23.252;2023-04-19T06:59:17;94498.19;;;9.90;100.00
20620;BME280;10469;42.720;23.252;2023-04-19T07:01:44;94500.50;;;10.15;100.00
20620;BME280;10469;42.720;23.252;2023-04-19T07:04:10;94505.19;;;10.37;100.00
20620;BME280;10469;42.720;23.252;2023-04-19T07:06:37;94500.31;;;10.05;100.00
20620;BME280;10469;42.720;23.252;2023-04-19T07:09:04;94499.91;;;9.96;100.00
20620;BME280;10469;42.720;23.252;2023-04-19T07:11:30;94510.81;;;10.07;100.00
20620;BME280;10469;42.720;23.252;2023-04-19T07:13:56;94505.97;;;10.37;100.00
20620;BME280;10469;42.720;23.252;2023-04-19T07:16:22;94502.38;;;10.65;100.00
20620;BME280;10469;42.720;23.252;2023-04-19T07:18:48;94509.47;;;10.38;100.00
20620;BME280;10469;42.720;23.252;2023-04-19T07:21:13;94513.59;;;9.83;100.00
20620;BME280;10469;42.720;23.252;2023-04-19T07:23:39;94505.81;;;9.82;100.00
20620;BME280;10469;42.720;23.252;2023-04-19T07:26:06;94515.25;;;10.01;100.00
20620;BME280;10469;42.720;23.252;2023-04-19T07:28:32;94509.69;;;10.19;100.00
20620;BME280;10469;42.720;23.252;2023-04-19T07:30:58;94514.38;;;10.12;100.00
20620;BME280;10469;42.720;23.252;2023-04-19T07:33:26;94505.97;;;10.54;100.00
20620;BME280;10469;42.720;23.252;2023-04-19T07:35:52;94511.41;;;10.42;100.00
20620;BME280;10469;42.720;23.252;2023-04-19T07:38:18;94489.38;;;10.57;100.00
20620;BME280;10469;42.720;23.252;2023-04-19T07:40:44;94506.97;;;10.87;100.00
20620;BME280;10469;42.720;23.252;2023-04-19T07:43:10;94499.41;;;10.84;100.00
20620;BME280;10469;42.720;23.252;2023-04-19T07:45:35;94513.41;;;10.69;100.00
20620;BME280;10469;42.720;23.252;2023-04-19T07:48:01;94507.13;;;10.58;100.00
20620;BME280;10469;42.720;23.252;2023-04-19T07:50:27;94505.16;;;10.53;100.00
20620;BME280;10469;42.720;23.252;2023-04-19T07:52:53;94508.16;;;10.96;100.00
20620;BME280;10469;42.720;23.252;2023-04-19T07:55:19;94510.41;;;10.65;100.00
20620;BME280;10469;42.720;23.252;2023-04-19T07:57:45;94509.34;;;10.66;100.00
20620;BME280;10469;42.720;23.252;2023-04-19T08:00:16;94499.69;;;10.65;100.00
20620;BME280;10469;42.720;23.252;2023-04-19T08:02:46;94510.19;;;10.67;100.00
20620;BME280;10469;42.720;23.252;2023-04-19T08:05:15;94509.22;;;10.39;100.00
20620;BME280;10469;42.720;23.252;2023-04-19T08:07:42;94491.13;;;10.85;100.00
20620;BME280;10469;42.720;23.252;2023-04-19T08:10:09;94495.44;;;11.08;100.00
20620;BME280;10469;42.720;23.252;2023-04-19T08:12:35;94511.44;;;10.98;100.00
20620;BME280;10469;42.720;23.252;2023-04-19T08:15:01;94504.63;;;10.73;100.00
20620;BME280;10469;42.720;23.252;2023-04-19T08:17:27;94492.16;;;10.62;100.00
20620;BME280;10469;42.720;23.252;2023-04-19T08:19:53;94512.47;;;10.58;100.00
20620;BME280;10469;42.720;23.252;2023-04-19T08:22:19;94502.31;;;10.99;100.00
20620;BME280;10469;42.720;23.252;2023-04-19T08:24:48;94500.22;;;11.94;100.00
20620;BME280;10469;42.720;23.252;2023-04-19T08:27:14;94501.47;;;11.15;100.00
20620;BME280;10469;42.720;23.252;2023-04-19T08:29:40;94494.94;;;11.55;100.00
20620;BME280;10469;42.720;23.252;2023-04-19T08:32:05;94499.16;;;11.95;100.00
20620;BME280;10469;42.720;23.252;2023-04-19T08:34:35;94496.47;;;11.73;100.00
20620;BME280;10469;42.720;23.252;2023-04-19T08:37:04;94488.78;;;11.33;100.00
20620;BME280;10469;42.720;23.252;2023-04-19T08:39:33;94488.00;;;11.59;100.00
20620;BME280;10469;42.720;23.252;2023-04-19T08:42:04;94483.91;;;12.00;100.00
20620;BME280;10469;42.720;23.252;2023-04-19T08:44:31;94493.94;;;12.10;100.00
20620;BME280;10469;42.720;23.252;2023-04-19T08:46:58;94494.63;;;12.65;100.00
20620;BME280;10469;42.720;23.252;2023-04-19T08:49:24;94484.72;;;12.70;100.00
20620;BME280;10469;42.720;23.252;2023-04-19T08:51:52;94488.59;;;12.15;100.00
20620;BME280;10469;42.720;23.252;2023-04-19T08:54:18;94477.94;;;12.63;100.00
20620;BME280;10469;42.720;23.252;2023-04-19T08:56:44;94471.41;;;12.16;100.00
20620;BME280;10469;42.720;23.252;2023-04-19T08:59:10;94487.09;;;13.04;100.00
20620;BME280;10469;42.720;23.252;2023-04-19T09:01:37;94468.69;;;12.91;100.00
20620;BME280;10469;42.720;23.252;2023-04-19T09:04:06;94486.97;;;13.36;100.00
20620;BME280;10469;42.720;23.252;2023-04-19T09:06:39;94481.38;;;13.43;100.00
20620;BME280;10469;42.720;23.252;2023-04-19T09:11:40;94476.69;;;14.62;100.00
20620;BME280;10469;42.720;23.252;2023-04-19T09:14:13;94463.66;;;15.05;100.00
20620;BME280;10469;42.720;23.252;2023-04-19T09:16:40;94464.78;;;14.07;100.00
20620;BME280;10469;42.720;23.252;2023-04-19T09:19:06;94454.00;;;13.92;100.00
20620;BME280;10469;42.720;23.252;2023-04-19T09:21:34;94450.81;;;14.51;100.00
20620;BME280;10469;42.720;23.252;2023-04-19T09:24:01;94457.13;;;15.21;100.00
20620;BME280;10469;42.720;23.252;2023-04-19T09:26:27;94441.41;;;16.27;100.00
20620;BME280;10469;42.720;23.252;2023-04-19T09:29:00;94453.75;;;16.04;100.00
20620;BME280;10469;42.720;23.252;2023-04-19T09:31:31;94447.66;;;15.29;100.00
20620;BME280;10469;42.720;23.252;2023-04-19T09:33:57;94438.34;;;16.73;100.00
20620;BME280;10469;42.720;23.252;2023-04-19T09:36:30;94438.41;;;20.24;100.00
20620;BME280;10469;42.720;23.252;2023-04-19T09:38:57;94456.16;;;17.33;100.00
20620;BME280;10469;42.720;23.252;2023-04-19T09:41:23;94455.81;;;15.78;100.00
20620;BME280;10469;42.720;23.252;2023-04-19T09:43:50;94460.22;;;14.33;100.00
20620;BME280;10469;42.720;23.252;2023-04-19T09:46:30;94457.22;;;14.80;100.00
20620;BME280;10469;42.720;23.252;2023-04-19T09:49:21;94441.69;;;17.85;100.00
20620;BME280;10469;42.720;23.252;2023-04-19T09:51:52;94443.53;;;16.36;100.00
20620;BME280;10469;42.720;23.252;2023-04-19T09:54:20;94446.72;;;15.59;100.00
20620;BME280;10469;42.720;23.252;2023-04-19T09:56:47;94441.78;;;15.71;100.00
20620;BME280;10469;42.720;23.252;2023-04-19T09:59:13;94435.00;;;15.14;100.00
20620;BME280;10469;42.720;23.252;2023-04-19T10:01:46;94438.44;;;16.29;100.00
20620;BME280;10469;42.720;23.252;2023-04-19T10:04:15;94439.53;;;15.94;100.00
20620;BME280;10469;42.720;23.252;2023-04-19T10:06:52;94427.72;;;16.48;100.00
20620;BME280;10469;42.720;23.252;2023-04-19T10:09:19;94432.56;;;17.09;100.00
20620;BME280;10469;42.720;23.252;2023-04-19T10:11:52;94433.84;;;17.17;100.00
20620;BME280;10469;42.720;23.252;2023-04-19T10:14:22;94433.50;;;16.99;100.00
20620;BME280;10469;42.720;23.252;2023-04-19T10:16:49;94423.66;;;16.79;100.00
20620;BME280;10469;42.720;23.252;2023-04-19T10:19:17;94419.28;;;16.84;100.00
20620;BME280;10469;42.720;23.252;2023-04-19T10:21:43;94420.31;;;18.68;97.21
20620;BME280;10469;42.720;23.252;2023-04-19T10:24:13;94419.97;;;18.74;94.75
20620;BME280;10469;42.720;23.252;2023-04-19T10:30:01;94409.00;;;21.33;74.98
20620;BME280;10469;42.720;23.252;2023-04-19T10:32:38;94417.97;;;18.28;87.22
20620;BME280;10469;42.720;23.252;2023-04-19T10:35:09;94410.94;;;17.04;94.89
20620;BME280;10469;42.720;23.252;2023-04-19T10:37:39;94417.47;;;18.26;84.67
20620;BME280;10469;42.720;23.252;2023-04-19T10:40:08;94408.00;;;18.75;87.52
20620;BME280;10469;42.720;23.252;2023-04-19T10:45:35;94409.31;;;17.70;84.90
20620;BME280;10469;42.720;23.252;2023-04-19T10:51:02;94400.84;;;18.14;87.87
20620;BME280;10469;42.720;23.252;2023-04-19T10:56:09;94381.16;;;18.88;84.24
20620;BME280;10469;42.720;23.252;2023-04-19T10:59:13;94386.47;;;19.98;77.56
20620;BME280;10469;42.720;23.252;2023-04-19T11:01:54;94384.88;;;19.19;80.46
20620;BME280;10469;42.720;23.252;2023-04-19T11:11:46;94373.19;;;19.96;78.43
20620;BME280;10469;42.720;23.252;2023-04-19T11:14:12;94373.22;;;17.74;90.80
20620;BME280;10469;42.720;23.252;2023-04-19T11:16:38;94377.19;;;18.01;88.52
20620;BME280;10469;42.720;23.252;2023-04-19T11:19:04;94371.47;;;20.68;74.64
20620;BME280;10469;42.720;23.252;2023-04-19T11:21:29;94367.88;;;20.14;68.80
20620;BME280;10469;42.720;23.252;2023-04-19T11:24:09;94358.97;;;21.38;65.92
20620;BME280;10469;42.720;23.252;2023-04-19T11:26:35;94339.78;;;20.49;74.09
20620;BME280;10469;42.720;23.252;2023-04-19T11:29:01;94342.84;;;20.79;70.80
20620;BME280;10469;42.720;23.252;2023-04-19T11:31:27;94356.47;;;20.79;63.93
20620;BME280;10469;42.720;23.252;2023-04-19T11:33:53;94345.31;;;19.27;73.78
20620;BME280;10469;42.720;23.252;2023-04-19T11:36:18;94364.13;;;18.03;82.62
20620;BME280;10469;42.720;23.252;2023-04-19T11:38:48;94369.31;;;16.13;95.20
20620;BME280;10469;42.720;23.252;2023-04-19T11:41:14;94364.50;;;16.92;93.46
20620;BME280;10469;42.720;23.252;2023-04-19T11:43:39;94343.19;;;20.33;76.25
20620;BME280;10469;42.720;23.252;2023-04-19T11:46:10;94342.47;;;18.63;74.06
20620;BME280;10469;42.720;23.252;2023-04-19T11:48:37;94352.66;;;18.39;80.60
20620;BME280;10469;42.720;23.252;2023-04-19T11:51:03;94355.19;;;19.87;73.42
20620;BME280;10469;42.720;23.252;2023-04-19T11:53:30;94352.88;;;18.89;77.04
20620;BME280;10469;42.720;23.252;2023-04-19T11:58:31;94360.69;;;17.78;80.61
20620;BME280;10469;42.720;23.252;2023-04-19T12:03:34;94346.47;;;16.82;85.88
20620;BME280;10469;42.720;23.252;2023-04-19T12:06:04;94347.91;;;16.74;91.53
20620;BME280;10469;42.720;23.252;2023-04-19T12:08:36;94339.06;;;16.93;93.21
20620;BME280;10469;42.720;23.252;2023-04-19T12:11:04;94336.63;;;17.34;90.30
20620;BME280;10469;42.720;23.252;2023-04-19T12:13:30;94339.63;;;17.33;86.89
20620;BME280;10469;42.720;23.252;2023-04-19T12:15:56;94339.44;;;17.05;91.35
20620;BME280;10469;42.720;23.252;2023-04-19T12:18:23;94335.47;;;17.59;93.44
20620;BME280;10469;42.720;23.252;2023-04-19T12:20:50;94335.91;;;17.47;91.82
20620;BME280;10469;42.720;23.252;2023-04-19T12:23:17;94336.31;;;16.69;92.93
20620;BME280;10469;42.720;23.252;2023-04-19T12:25:47;94338.16;;;16.20;99.79
20620;BME280;10469;42.720;23.252;2023-04-19T12:28:14;94339.41;;;15.65;100.00
20620;BME280;10469;42.720;23.252;2023-04-19T12:30:41;94326.16;;;15.63;100.00
20620;BME280;10469;42.720;23.252;2023-04-19T12:33:07;94341.03;;;16.00;100.00
20620;BME280;10469;42.720;23.252;2023-04-19T12:35:33;94326.66;;;16.34;100.00
20620;BME280;10469;42.720;23.252;2023-04-19T12:38:00;94323.31;;;15.84;100.00
20620;BME280;10469;42.720;23.252;2023-04-19T12:40:28;94335.50;;;15.42;100.00
20620;BME280;10469;42.720;23.252;2023-04-19T12:42:53;94333.41;;;15.73;100.00
20620;BME280;10469;42.720;23.252;2023-04-19T12:45:19;94334.16;;;16.42;100.00
20620;BME280;10469;42.720;23.252;2023-04-19T12:47:46;94341.47;;;15.78;100.00
20620;BME280;10469;42.720;23.252;2023-04-19T12:50:13;94344.22;;;15.28;100.00
20620;BME280;10469;42.720;23.252;2023-04-19T12:52:39;94356.56;;;16.18;100.00
20620;BME280;10469;42.720;23.252;2023-04-19T12:55:06;94344.47;;;16.93;97.70
20620;BME280;10469;42.720;23.252;2023-04-19T12:57:32;94336.34;;;16.40;94.54
20620;BME280;10469;42.720;23.252;2023-04-19T12:59:58;94350.09;;;15.36;100.00
20620;BME280;10469;42.720;23.252;2023-04-19T13:02:24;94339.31;;;14.81;100.00
20620;BME280;10469;42.720;23.252;2023-04-19T13:04:49;94341.56;;;14.48;100.00
20620;BME280;10469;42.720;23.252;2023-04-19T13:07:15;94348.31;;;14.15;100.00
20620;BME280;10469;42.720;23.252;2023-04-19T13:09:41;94354.00;;;14.03;100.00
20620;BME280;10469;42.720;23.252;2023-04-19T13:12:07;94359.91;;;13.85;100.00
20620;BME280;10469;42.720;23.252;2023-04-19T13:14:33;94362.34;;;13.76;100.00